createdAt,value
2022-12-08T05:48:34.792Z,8.40
2022-12-08T06:33:11.126Z,5.10
2022-12-08T06:35:39.248Z,4.40
2022-12-08T06:38:07.388Z,4.40
2022-12-08T06:40:35.573Z,4.40
2022-12-08T06:43:03.738Z,4.40
2022-12-08T06:45:33.377Z,4.40
2022-12-08T06:48:03.077Z,4.30
2022-12-08T06:50:32.618Z,4.30
2022-12-08T06:53:05.213Z,4.40
2022-12-08T06:55:57.983Z,4.40
2022-12-08T06:58:22.789Z,4.40
2022-12-08T07:00:52.388Z,4.40
2022-12-08T07:03:20.636Z,4.50
2022-12-08T07:05:48.954Z,4.40
2022-12-08T07:08:17.143Z,4.40
2022-12-08T07:10:45.332Z,4.40
2022-12-08T07:13:13.473Z,4.40
2022-12-08T07:15:41.644Z,4.40
2022-12-08T07:18:11.211Z,4.40
2022-12-08T07:20:39.541Z,4.30
2022-12-08T07:23:07.680Z,4.30
2022-12-08T07:25:35.904Z,4.30
2022-12-08T07:28:09.838Z,4.30
2022-12-08T07:30:38.222Z,4.30
2022-12-08T07:33:06.886Z,4.30
2022-12-08T07:35:36.457Z,4.30
2022-12-08T07:38:04.650Z,4.40
2022-12-08T07:40:32.753Z,4.30
2022-12-08T07:43:01.035Z,4.30
2022-12-08T07:45:31.712Z,4.40
2022-12-08T07:48:00.128Z,4.40
2022-12-08T07:50:28.264Z,4.40
2022-12-08T07:52:57.824Z,4.40
2022-12-08T07:55:26.187Z,4.40
2022-12-08T07:57:54.522Z,4.40
2022-12-08T08:00:22.974Z,4.40
2022-12-08T08:02:51.241Z,4.40
2022-12-08T08:05:20.724Z,4.50
2022-12-08T08:07:48.910Z,4.50
2022-12-08T08:10:18.946Z,4.50
2022-12-08T08:12:47.637Z,4.50
2022-12-08T08:15:15.767Z,4.50
2022-12-08T08:17:43.920Z,4.50
2022-12-08T08:20:13.046Z,4.50
2022-12-08T08:22:41.195Z,4.40
2022-12-08T08:25:10.347Z,4.50
2022-12-08T08:27:40.080Z,4.50
2022-12-08T08:30:12.987Z,4.50
2022-12-08T08:32:45.172Z,4.50
2022-12-08T08:35:13.387Z,4.70
2022-12-08T08:37:47.092Z,4.70
2022-12-08T08:40:17.234Z,4.70
2022-12-08T08:42:46.762Z,4.70
2022-12-08T08:45:14.893Z,4.80
2022-12-08T08:47:43.165Z,4.80
2022-12-08T08:50:11.522Z,4.80
2022-12-08T08:52:39.848Z,4.80
2022-12-08T08:55:08.549Z,4.90
2022-12-08T08:57:36.740Z,4.90
2022-12-08T09:00:10.170Z,4.90
2022-12-08T09:02:38.973Z,5.00
2022-12-08T09:05:08.185Z,5.00
2022-12-08T09:07:36.468Z,5.00
2022-12-08T09:10:05.420Z,5.00
2022-12-08T09:12:33.992Z,5.00
2022-12-08T09:15:02.173Z,5.10
2022-12-08T09:17:31.718Z,5.10
2022-12-08T09:20:01.390Z,5.10
2022-12-08T09:22:29.976Z,5.10
2022-12-08T09:24:58.218Z,5.20
2022-12-08T09:39:50.920Z,5.30
2022-12-08T09:42:27.167Z,5.90
2022-12-08T09:45:01.708Z,6.00
2022-12-08T09:47:35.986Z,6.00
2022-12-08T09:57:42.249Z,6.00
2022-12-08T10:50:55.606Z,6.40
2022-12-08T10:53:26.148Z,7.60
2022-12-08T10:56:06.774Z,7.70
2022-12-08T10:58:36.556Z,7.80
2022-12-08T11:01:11.154Z,7.80
2022-12-08T11:11:27.501Z,7.90
2022-12-08T16:09:52.215Z,8.10
2022-12-08T16:13:40.329Z,9.40
2022-12-08T16:18:23.931Z,9.20
2022-12-08T16:21:19.047Z,9.10
2022-12-08T16:23:43.606Z,9.10
2022-12-08T16:26:28.607Z,9.10
2022-12-08T16:29:04.268Z,9.00
2022-12-08T16:31:32.863Z,9.00
2022-12-08T16:34:01.100Z,9.00
2022-12-08T16:36:29.292Z,9.00
2022-12-08T16:38:57.564Z,9.00
2022-12-08T16:41:44.662Z,8.90
2022-12-08T16:44:12.895Z,8.90
2022-12-08T16:46:41.033Z,8.90
2022-12-08T16:49:10.467Z,8.90
2022-12-08T16:51:38.793Z,8.90
2022-12-08T16:54:06.958Z,8.90
2022-12-08T16:56:36.571Z,8.90
2022-12-08T16:59:04.828Z,8.90
2022-12-08T17:01:33.162Z,8.90
2022-12-08T17:06:50.933Z,8.90
2022-12-08T17:09:19.313Z,8.90
2022-12-08T17:11:48.829Z,8.90
2022-12-08T17:14:17.096Z,8.80
2022-12-08T17:16:46.084Z,8.90
2022-12-08T17:19:15.337Z,8.90
2022-12-08T17:21:44.354Z,8.90
2022-12-08T17:24:15.853Z,8.90
2022-12-08T17:26:48.235Z,8.90
2022-12-08T17:29:18.721Z,8.80
2022-12-08T17:31:47.154Z,8.80
2022-12-08T17:34:15.425Z,8.80
2022-12-08T17:36:43.639Z,8.80
2022-12-08T17:39:18.247Z,8.80
2022-12-08T17:41:48.700Z,8.80
2022-12-08T17:44:19.438Z,8.80
2022-12-08T17:46:52.657Z,8.80
2022-12-08T17:49:23.460Z,8.80
2022-12-08T17:51:53.658Z,8.80
2022-12-08T17:54:22.282Z,8.80
2022-12-08T17:56:52.006Z,8.80
2022-12-08T17:59:20.545Z,8.80
2022-12-08T18:01:48.806Z,8.80
2022-12-08T18:04:17.025Z,8.80
2022-12-08T18:06:45.169Z,8.80
2022-12-08T18:09:13.529Z,8.80
2022-12-08T18:11:42.015Z,8.80
2022-12-08T18:29:09.470Z,8.70
2022-12-08T18:31:39.049Z,8.10
